Cove, Oregon
Current Conditions -  °F | °C
As of 8:35 PM on Saturday 25 Oct 2014 (Local Time) from KLGD Reporting Station
Scattered Clouds Scattered Clouds  
Wind Chill: 54°   Ceiling: Unl
Heat Index: 54°   Visibility: 10mi
Dew Point: 39°   Wind: 15mph
Humidity: 58%   Direction: 220°SW
Pressure: 29.69"   Gusts: 23mph
Location:  45.3°N, 117.81°W
Report Text: KLGD 260335Z AUTO 22013G20KT 10SM FEW034 SCT120 12/04 A2969 RMK AO1
Loading
Personal Weather Stations






























Interactive Weather Map
Tropical Storm Tracking
New forecast layout! Learn more

10-Day Weather Forecast

Advertisements
Track Severe Weather on mobile